Herzlich willkommen!

Am freundlichen Bodensee-Flugplatz zwischen Schwarzwald, Rhein und Alpen.

Aktuelles

Es liegen keine aktuellen Meldungen vor. Wir freuen uns auf Ihren Besuch!

Live am Platz

Die Bilder unserer Webcams werden alle 5 Minuten aktualisiert.

Sonnenaufgang:

05:03 UTC / 07:03 Lokal

Sonnenuntergang:

17:31 UTC / 19:31 Lokal

METAR (18.09.2019 07:50 UTC):

EDNY 180750Z 03007KT 9999 BKN051 12/07 Q1023
VFR

TAF (18.09.2019 05:00 UTC):

TAF EDNY 180500Z 1806/1906 02007KT CAVOK

Alle Angaben unverbindlich und ohne Gewähr. Zeiten genähert.

Für den Verkehrslandeplatz Konstanz werden keine offiziellen Wetterinformationen ausgegeben. Daher werden zur Orientierung Daten des nahegelegenen Flughafens Friedrichshafen dargestellt.

Flugwetterdaten zur Verfügung gestellt von wippich.aero.